Time;durP1;ratioP1;P1;durP2;ratioP2;P2;SDS_P1;SDS_P2;PMS_P1;PMS_P2;Temp;Humidity;BMP_temperature;BMP_pressure;BME280_temperature;BME280_humidity;BME280_pressure;Samples;Min_cycle;Max_cycle;Signal;HPM_P1;HPM_P2
2021/05/24 00:01:42;;;;;;;8.67;7.97;;;;;;;11.78;63.33;101128.91;5121368;28;20534;-64
2021/05/24 00:04:07;;;;;;;10.93;9.03;;;;;;;11.80;63.02;101135.00;5121646;28;20163;-64
2021/05/24 00:06:33;;;;;;;8.87;7.97;;;;;;;11.60;64.64;101133.91;5121910;28;20568;-64
2021/05/24 00:08:58;;;;;;;9.00;8.17;;;;;;;11.51;64.77;101125.97;5121379;28;20187;-64
2021/05/24 00:11:23;;;;;;;9.23;8.27;;;;;;;11.49;64.92;101133.78;5121231;28;20168;-64
2021/05/24 00:13:56;;;;;;;9.87;8.50;;;;;;;11.71;64.28;101132.28;5121934;27;20421;-64
2021/05/24 00:16:23;;;;;;;9.90;8.90;;;;;;;11.65;64.04;101133.94;5121326;28;20174;-64
2021/05/24 00:18:51;;;;;;;11.10;9.03;;;;;;;11.60;64.60;101137.38;5121232;28;20410;-64
2021/05/24 00:21:18;;;;;;;9.30;8.47;;;;;;;11.84;63.69;101125.47;5120941;27;20408;-64
2021/05/24 00:23:44;;;;;;;11.33;8.93;;;;;;;11.54;65.01;101120.75;5120908;28;20415;-64
2021/05/24 00:26:10;;;;;;;12.30;8.87;;;;;;;11.71;64.36;101113.13;5120685;28;20453;-64
2021/05/24 00:28:35;;;;;;;9.67;8.73;;;;;;;11.70;64.11;101114.84;5120939;28;20183;-64
2021/05/24 00:31:01;;;;;;;9.00;8.20;;;;;;;11.86;63.61;101109.81;5120254;28;20414;-64
2021/05/24 00:33:26;;;;;;;9.40;8.60;;;;;;;12.08;63.23;101103.06;5120937;28;20556;-63
2021/05/24 00:35:51;;;;;;;9.70;8.80;;;;;;;11.67;64.08;101104.38;5121061;27;20176;-63
2021/05/24 00:38:16;;;;;;;9.33;8.23;;;;;;;11.66;65.05;101097.41;5121380;28;20168;-63
2021/05/24 00:40:42;;;;;;;10.23;8.00;;;;;;;11.67;64.47;101091.31;5120796;27;20237;-63
2021/05/24 00:43:08;;;;;;;8.97;8.17;;;;;;;11.76;64.55;101086.19;5120606;28;20446;-64
2021/05/24 00:45:34;;;;;;;10.00;8.30;;;;;;;11.60;64.37;101086.91;5121224;28;20190;-64
2021/05/24 00:48:00;;;;;;;9.83;8.40;;;;;;;11.72;63.81;101087.03;5120494;28;20882;-64
2021/05/24 00:50:26;;;;;;;11.67;8.10;;;;;;;11.76;63.95;101082.72;5120585;28;20508;-64
2021/05/24 00:52:51;;;;;;;9.20;8.20;;;;;;;11.74;63.99;101076.59;5120737;28;20418;-64
2021/05/24 00:55:17;;;;;;;9.00;7.33;;;;;;;11.73;63.96;101077.44;5120432;27;20210;-63
2021/05/24 00:57:44;;;;;;;8.73;7.93;;;;;;;11.49;65.21;101078.06;5120403;28;20171;-63
2021/05/24 01:00:15;;;;;;;8.80;8.03;;;;;;;11.25;65.25;101074.31;5120948;28;20213;-64
2021/05/24 01:02:40;;;;;;;8.60;7.80;;;;;;;11.59;64.88;101059.88;5120135;28;20448;-65
2021/05/24 01:05:06;;;;;;;9.10;8.07;;;;;;;11.70;64.52;101064.34;5120170;28;20493;-64
2021/05/24 01:07:31;;;;;;;8.87;8.07;;;;;;;11.46;64.74;101065.88;5120481;28;20195;-64
2021/05/24 01:09:57;;;;;;;9.33;8.40;;;;;;;11.15;65.41;101051.56;5120173;28;20440;-63
2021/05/24 01:12:23;;;;;;;8.57;7.77;;;;;;;11.37;65.15;101048.34;5119946;28;20164;-64
2021/05/24 01:14:48;;;;;;;8.63;7.90;;;;;;;11.39;65.16;101049.25;5120686;28;20168;-64
2021/05/24 01:17:13;;;;;;;8.63;7.83;;;;;;;11.38;65.31;101044.88;5119971;28;20208;-63
2021/05/24 01:19:46;;;;;;;9.40;8.60;;;;;;;11.57;65.08;101037.25;5119900;27;20448;-63
2021/05/24 01:22:16;;;;;;;9.10;8.20;;;;;;;11.68;64.02;101037.38;5120345;28;20184;-64
2021/05/24 01:24:42;;;;;;;9.23;8.30;;;;;;;11.78;64.26;101033.97;5119092;28;20440;-64
2021/05/24 01:27:07;;;;;;;11.20;7.70;;;;;;;11.39;65.81;101040.53;5119876;28;20522;-65
2021/05/24 01:29:33;;;;;;;8.87;8.10;;;;;;;11.65;64.29;101038.22;5120360;28;20160;-64
2021/05/24 01:31:58;;;;;;;9.53;8.63;;;;;;;11.58;64.54;101029.44;5119757;28;20563;-64
2021/05/24 01:34:23;;;;;;;9.10;8.20;;;;;;;11.25;65.54;101029.94;5119567;28;20255;-64
2021/05/24 01:36:49;;;;;;;9.70;7.50;;;;;;;11.31;64.87;101040.44;5119373;28;20164;-64
2021/05/24 01:39:14;;;;;;;8.90;7.70;;;;;;;11.70;63.90;101030.41;5119678;28;20160;-64
2021/05/24 01:41:39;;;;;;;8.40;7.60;;;;;;;11.53;64.69;101023.28;5119527;28;20251;-64
2021/05/24 01:44:05;;;;;;;8.93;8.13;;;;;;;11.83;63.63;101018.34;5119859;28;20163;-64
2021/05/24 01:46:30;;;;;;;8.37;7.63;;;;;;;11.48;64.00;101027.59;5119388;28;20191;-64
2021/05/24 01:48:56;;;;;;;8.53;7.70;;;;;;;11.01;66.17;101026.16;5119298;28;20440;-64
2021/05/24 01:51:21;;;;;;;8.30;7.30;;;;;;;10.92;65.71;101020.88;5119654;28;20202;-63
2021/05/24 01:53:46;;;;;;;8.83;8.00;;;;;;;11.21;65.69;101022.94;5119445;28;20178;-63
2021/05/24 01:56:12;;;;;;;8.80;7.87;;;;;;;11.39;65.34;101015.31;5119225;28;20175;-63
2021/05/24 01:58:37;;;;;;;8.00;7.30;;;;;;;11.41;64.52;101017.94;5119847;28;20192;-63
2021/05/24 02:01:08;;;;;;;8.93;8.13;;;;;;;11.21;64.99;101012.50;5119077;28;20164;-63
2021/05/24 02:03:34;;;;;;;8.50;7.70;;;;;;;11.29;64.72;101003.03;5119182;27;20212;-65
2021/05/24 02:06:01;;;;;;;7.97;7.37;;;;;;;11.05;66.25;101017.53;5119491;28;20398;-64
2021/05/24 02:08:27;;;;;;;8.47;7.70;;;;;;;10.83;65.51;101008.56;5119089;28;20706;-64
2021/05/24 02:10:52;;;;;;;8.73;8.03;;;;;;;11.23;65.49;101000.31;5118890;28;20476;-64
2021/05/24 02:13:17;;;;;;;8.37;7.67;;;;;;;11.36;64.66;100997.00;5119564;28;20412;-63
2021/05/24 02:15:43;;;;;;;9.00;8.07;;;;;;;11.76;63.72;100993.91;5119015;28;20168;-64
2021/05/24 02:18:08;;;;;;;8.53;7.80;;;;;;;10.92;66.32;101002.59;5118877;28;20557;-64
2021/05/24 02:20:35;;;;;;;9.13;8.13;;;;;;;11.55;65.00;100997.19;5119521;28;20164;-64
2021/05/24 02:23:01;;;;;;;8.37;7.57;;;;;;;11.26;64.27;100995.16;5118793;28;20436;-63
2021/05/24 02:25:27;;;;;;;8.80;8.10;;;;;;;10.93;65.35;100993.91;5118559;28;20467;-63
2021/05/24 02:27:53;;;;;;;8.93;8.07;;;;;;;11.22;65.18;100990.78;5119115;28;20449;-63
2021/05/24 02:30:20;;;;;;;8.60;7.87;;;;;;;11.50;63.44;100996.25;5118924;28;20224;-64
2021/05/24 02:32:46;;;;;;;8.83;7.93;;;;;;;11.62;63.58;100986.81;5118771;28;20405;-64
2021/05/24 02:35:14;;;;;;;8.50;7.83;;;;;;;11.57;62.55;100983.28;5119596;28;20510;-63
2021/05/24 02:37:41;;;;;;;8.93;8.13;;;;;;;11.08;64.33;100985.38;5118598;28;20225;-63
2021/05/24 02:40:08;;;;;;;9.30;8.50;;;;;;;11.01;64.71;100981.81;5118758;28;20687;-63
2021/05/24 02:42:34;;;;;;;9.13;8.33;;;;;;;11.07;64.18;100984.50;5118638;28;20443;-63
2021/05/24 02:44:59;;;;;;;9.30;8.50;;;;;;;11.53;62.87;100975.41;5118636;28;20421;-62
2021/05/24 02:47:24;;;;;;;8.80;8.00;;;;;;;11.38;63.18;100979.63;5118410;28;20210;-63
2021/05/24 02:49:50;;;;;;;9.23;8.40;;;;;;;11.62;62.97;100980.72;5118859;28;20494;-64
2021/05/24 02:52:15;;;;;;;8.33;7.63;;;;;;;11.62;62.16;100975.50;5118385;28;20171;-63
2021/05/24 02:54:41;;;;;;;9.60;8.50;;;;;;;11.23;63.86;100984.66;5121235;28;20188;-64
2021/05/24 02:57:06;;;;;;;8.90;8.20;;;;;;;11.51;62.55;100977.13;5125776;27;20468;-64
2021/05/24 02:59:31;;;;;;;8.97;8.17;;;;;;;11.32;62.63;100982.16;5125272;27;20202;-63
2021/05/24 03:01:57;;;;;;;8.90;8.00;;;;;;;11.31;62.28;100976.94;5125309;27;20171;-63
2021/05/24 03:04:27;;;;;;;8.30;7.60;;;;;;;11.73;61.42;100979.09;5125811;27;20166;-63
2021/05/24 03:06:52;;;;;;;8.27;7.57;;;;;;;11.54;62.32;100977.16;5125149;27;20264;-63
2021/05/24 03:09:18;;;;;;;7.63;7.03;;;;;;;11.40;62.25;100983.13;5124428;28;20409;-64
2021/05/24 03:11:43;;;;;;;8.20;7.50;;;;;;;11.75;60.80;100981.72;5125375;27;20251;-63
2021/05/24 03:14:08;;;;;;;8.00;7.30;;;;;;;10.95;63.05;100977.41;5125201;27;20235;-63
2021/05/24 03:16:34;;;;;;;7.97;7.23;;;;;;;11.28;63.18;100981.28;5125010;27;20471;-63
2021/05/24 03:18:59;;;;;;;9.00;8.10;;;;;;;11.55;62.00;100974.56;5125415;27;20156;-63
2021/05/24 03:21:24;;;;;;;8.03;7.30;;;;;;;11.35;61.24;100978.72;5124798;28;20175;-65
2021/05/24 03:23:49;;;;;;;7.37;6.77;;;;;;;11.44;61.81;100984.88;5125020;27;20186;-64
2021/05/24 03:26:15;;;;;;;8.60;7.30;;;;;;;11.23;62.62;100979.44;5124902;27;20584;-63
2021/05/24 03:28:43;;;;;;;7.67;7.07;;;;;;;11.53;61.89;100971.06;5125025;27;20225;-64
2021/05/24 03:31:09;;;;;;;8.40;7.60;;;;;;;11.88;60.13;100969.59;5125403;27;20607;-63
2021/05/24 03:33:34;;;;;;;8.00;7.20;;;;;;;11.84;60.37;100967.84;5125072;27;20507;-64
2021/05/24 03:35:59;;;;;;;7.30;6.63;;;;;;;11.40;61.07;100969.19;5125022;27;20176;-64
2021/05/24 03:38:24;;;;;;;7.90;7.30;;;;;;;11.24;62.15;100965.53;5125429;27;20179;-64
2021/05/24 03:40:50;;;;;;;7.87;7.13;;;;;;;11.49;61.60;100969.28;5125043;27;20174;-64
2021/05/24 03:43:15;;;;;;;7.33;6.63;;;;;;;11.62;61.18;100957.22;5125015;27;20175;-64
2021/05/24 03:45:41;;;;;;;7.30;6.60;;;;;;;11.33;61.16;100975.22;5125510;27;20191;-62
2021/05/24 03:48:06;;;;;;;7.67;6.93;;;;;;;11.78;60.40;100961.72;5124822;27;20203;-64
2021/05/24 03:50:33;;;;;;;6.67;6.17;;;;;;;11.47;61.04;100960.56;5124885;27;20567;-64
2021/05/24 03:52:58;;;;;;;7.07;6.37;;;;;;;11.89;60.21;100953.97;5125561;27;20167;-64
2021/05/24 03:55:24;;;;;;;7.57;6.87;;;;;;;11.79;60.90;100947.78;5124993;27;20413;-64
2021/05/24 03:57:51;;;;;;;6.80;6.03;;;;;;;11.48;61.38;100951.88;5124931;27;20560;-64
2021/05/24 04:00:17;;;;;;;7.00;6.20;;;;;;;11.75;60.25;100946.00;5125314;27;20174;-64
2021/05/24 04:02:43;;;;;;;8.73;7.40;;;;;;;11.61;59.96;100951.13;5124720;27;20424;-64
2021/05/24 04:05:19;;;;;;;6.50;5.80;;;;;;;11.80;59.81;100949.53;5124886;27;20401;-64
2021/05/24 04:07:49;;;;;;;7.80;6.50;;;;;;;11.74;60.01;100954.69;5121634;27;20700;-64
2021/05/24 04:10:17;;;;;;;6.80;6.13;;;;;;;11.76;60.22;100955.59;5121602;28;20752;-63
2021/05/24 04:12:42;;;;;;;7.70;6.80;;;;;;;11.23;61.28;100953.34;5121713;28;20384;-63
2021/05/24 04:15:08;;;;;;;6.97;6.37;;;;;;;11.78;59.21;100953.00;5121342;28;20421;-63
2021/05/24 04:17:36;;;;;;;7.57;6.17;;;;;;;12.07;58.50;100945.41;5121277;28;20171;-64
2021/05/24 04:20:04;;;;;;;6.73;6.13;;;;;;;11.73;59.22;100952.06;5122002;28;20195;-63
2021/05/24 04:22:29;;;;;;;6.73;5.97;;;;;;;12.23;57.72;100950.72;5121127;28;20424;-63
2021/05/24 04:24:54;;;;;;;6.50;5.90;;;;;;;12.59;56.94;100949.19;5121003;28;20441;-63
2021/05/24 04:27:19;;;;;;;6.00;5.50;;;;;;;12.73;56.22;100950.13;5121665;28;20195;-64
2021/05/24 04:29:46;;;;;;;6.20;5.73;;;;;;;12.63;55.96;100943.97;5121120;27;20204;-64
2021/05/24 04:32:11;;;;;;;6.27;5.67;;;;;;;12.80;55.07;100943.19;5120896;28;20176;-64
2021/05/24 04:34:37;;;;;;;5.53;5.03;;;;;;;13.59;53.07;100933.75;5121464;27;20405;-64
2021/05/24 04:37:02;;;;;;;5.43;4.93;;;;;;;14.09;51.85;100937.22;5121004;28;20463;-64
2021/05/24 04:39:27;;;;;;;5.07;4.57;;;;;;;14.15;51.11;100931.09;5120956;28;20445;-64
2021/05/24 04:41:52;;;;;;;5.00;4.60;;;;;;;14.47;49.92;100923.13;5121168;28;20194;-64
2021/05/24 04:44:19;;;;;;;7.60;4.77;;;;;;;15.31;48.27;100922.72;5119979;28;20180;-65
2021/05/24 04:46:45;;;;;;;5.50;4.60;;;;;;;14.84;49.12;100926.50;5120571;28;20316;-64
2021/05/24 04:49:11;;;;;;;5.17;4.63;;;;;;;12.97;53.69;100928.41;5121263;28;20403;-64
2021/05/24 04:51:36;;;;;;;7.43;4.60;;;;;;;13.71;51.88;100929.41;5120602;28;20749;-64
2021/05/24 04:54:01;;;;;;;5.00;4.50;;;;;;;13.46;52.77;100927.66;5120637;28;20190;-65
2021/05/24 04:56:26;;;;;;;4.40;4.10;;;;;;;14.97;47.51;100922.94;5120426;28;20164;-64
2021/05/24 04:58:52;;;;;;;5.43;4.53;;;;;;;16.64;44.40;100908.28;5120644;28;20552;-64
2021/05/24 05:01:17;;;;;;;5.67;3.93;;;;;;;15.45;46.83;100920.00;5120296;28;20250;-64
2021/05/24 05:03:43;;;;;;;4.27;3.90;;;;;;;17.90;41.13;100907.28;5121016;28;20199;-64
2021/05/24 05:06:08;;;;;;;4.80;3.80;;;;;;;17.91;40.97;100901.13;5120459;28;20452;-64
2021/05/24 05:08:33;;;;;;;7.17;3.87;;;;;;;17.78;40.31;100898.72;5120282;28;20207;-64
2021/05/24 05:10:59;;;;;;;4.47;3.60;;;;;;;19.57;37.16;100893.22;5120594;28;20222;-64
2021/05/24 05:13:24;;;;;;;4.17;3.77;;;;;;;17.82;39.93;100896.91;5120229;28;20198;-64
2021/05/24 05:15:49;;;;;;;4.30;3.57;;;;;;;16.19;43.88;100903.56;5120129;28;20168;-65
2021/05/24 05:18:15;;;;;;;4.97;3.80;;;;;;;15.25;46.89;100901.75;5120037;28;20451;-65
2021/05/24 05:20:40;;;;;;;6.70;3.93;;;;;;;15.21;47.28;100900.03;5120072;28;20254;-64
2021/05/24 05:23:05;;;;;;;3.90;3.60;;;;;;;15.01;47.16;100887.06;5119971;28;20171;-64
2021/05/24 05:25:31;;;;;;;4.10;3.50;;;;;;;14.54;49.16;100899.50;5119909;28;20223;-64
2021/05/24 05:27:56;;;;;;;4.67;3.50;;;;;;;15.08;48.01;100894.84;5119882;28;20252;-64
2021/05/24 05:30:21;;;;;;;4.60;3.37;;;;;;;15.29;46.87;100885.13;5120371;28;20521;-64
2021/05/24 05:32:47;;;;;;;4.90;3.90;;;;;;;14.53;48.83;100901.28;5119766;28;20210;-65
2021/05/24 05:35:13;;;;;;;4.87;4.37;;;;;;;14.85;48.63;100889.75;5119856;28;20171;-64
2021/05/24 05:37:39;;;;;;;4.20;3.90;;;;;;;15.06;47.66;100904.53;5120289;28;20194;-64
2021/05/24 05:40:05;;;;;;;4.03;3.63;;;;;;;15.83;46.00;100888.16;5119830;28;20388;-63
2021/05/24 05:42:30;;;;;;;4.50;4.10;;;;;;;15.38;46.29;100902.53;5119457;28;20578;-65
2021/05/24 05:44:55;;;;;;;4.00;3.60;;;;;;;16.91;43.61;100891.28;5120243;28;20417;-63
2021/05/24 05:47:21;;;;;;;4.53;3.83;;;;;;;16.39;43.90;100879.66;5119531;28;20215;-63
2021/05/24 05:49:48;;;;;;;3.50;3.20;;;;;;;15.79;46.14;100883.78;5119308;28;20273;-63
2021/05/24 05:52:16;;;;;;;4.30;3.60;;;;;;;15.41;46.75;100878.88;5119788;28;20164;-63
2021/05/24 05:54:42;;;;;;;4.70;3.70;;;;;;;17.55;42.86;100866.59;5119280;28;20499;-64
2021/05/24 05:57:07;;;;;;;5.90;3.70;;;;;;;18.92;38.67;100863.06;5119397;28;20414;-64
2021/05/24 05:59:32;;;;;;;8.13;4.00;;;;;;;17.48;42.39;100865.81;5119963;28;20291;-65
2021/05/24 06:01:58;;;;;;;3.80;3.40;;;;;;;17.54;42.08;100872.78;5119527;28;20224;-62
2021/05/24 06:04:23;;;;;;;3.67;3.37;;;;;;;17.19;43.68;100869.81;5117994;28;20179;-65
2021/05/24 06:06:48;;;;;;;4.20;3.60;;;;;;;18.19;41.06;100869.84;5119365;28;20207;-66
2021/05/24 06:09:14;;;;;;;3.80;3.50;;;;;;;17.61;42.18;100863.84;5119064;28;20218;-65
2021/05/24 06:11:39;;;;;;;3.83;3.50;;;;;;;18.24;40.74;100864.47;5118769;28;20186;-63
2021/05/24 06:14:04;;;;;;;4.53;3.60;;;;;;;20.14;37.94;100858.16;5119392;28;20167;-64
2021/05/24 06:16:30;;;;;;;3.30;3.00;;;;;;;20.74;36.26;100844.97;5118951;28;20508;-64
2021/05/24 06:18:55;;;;;;;3.53;3.23;;;;;;;20.52;36.60;100858.81;5118930;28;20478;-64
2021/05/24 06:21:20;;;;;;;3.47;3.03;;;;;;;21.36;34.58;100843.88;5119269;28;20591;-64
2021/05/24 06:23:46;;;;;;;2.87;2.67;;;;;;;21.01;35.75;100859.16;5118889;28;20183;-64
2021/05/24 06:26:14;;;;;;;3.60;3.20;;;;;;;21.39;35.09;100842.88;5118693;28;20247;-64
2021/05/24 06:28:40;;;;;;;3.70;3.10;;;;;;;22.38;32.79;100858.03;5118912;27;20218;-64
2021/05/24 06:31:05;;;;;;;3.23;2.87;;;;;;;21.95;34.20;100859.56;5118323;28;20409;-64
2021/05/24 06:33:30;;;;;;;6.27;4.17;;;;;;;20.25;36.82;100864.94;5118716;28;20201;-64
2021/05/24 06:35:56;;;;;;;4.03;3.20;;;;;;;23.07;32.30;100854.44;5119273;28;20208;-64
2021/05/24 06:38:21;;;;;;;3.73;2.90;;;;;;;22.85;32.76;100857.97;5118508;28;20187;-64
2021/05/24 06:40:46;;;;;;;3.20;2.90;;;;;;;20.78;36.66;100864.28;5118689;28;20232;-65
2021/05/24 06:43:12;;;;;;;4.70;3.30;;;;;;;22.48;33.02;100846.09;5118771;28;20179;-65
2021/05/24 06:45:37;;;;;;;3.77;3.23;;;;;;;22.79;32.68;100850.22;5118546;28;20171;-64
2021/05/24 06:48:02;;;;;;;3.93;3.40;;;;;;;22.16;33.55;100852.59;5118481;28;20203;-65
2021/05/24 06:50:28;;;;;;;4.17;2.80;;;;;;;23.41;31.93;100852.19;5118709;28;20504;-64
2021/05/24 06:52:53;;;;;;;3.77;2.93;;;;;;;23.49;31.51;100842.97;5118381;28;20210;-67
2021/05/24 06:55:19;;;;;;;3.27;2.97;;;;;;;23.61;31.33;100841.56;5118481;28;20246;-65
2021/05/24 06:57:44;;;;;;;2.90;2.60;;;;;;;23.17;31.70;100844.31;5118722;28;20489;-65
2021/05/24 07:00:11;;;;;;;3.03;2.57;;;;;;;24.07;30.24;100833.34;5118427;28;20167;-65
2021/05/24 07:02:41;;;;;;;3.60;3.00;;;;;;;22.07;33.53;100837.00;5118181;28;20575;-64
2021/05/24 07:05:07;;;;;;;3.80;2.57;;;;;;;23.81;30.31;100827.38;5118752;28;20458;-65
2021/05/24 07:07:34;;;;;;;3.17;2.80;;;;;;;23.01;31.36;100822.78;5118213;28;20457;-65
2021/05/24 07:09:59;;;;;;;2.90;2.60;;;;;;;23.27;31.00;100821.69;5118201;28;20190;-65
2021/05/24 07:12:24;;;;;;;3.23;2.60;;;;;;;22.93;31.19;100823.06;5118485;28;20414;-64
2021/05/24 07:14:53;;;;;;;2.90;2.60;;;;;;;23.29;30.68;100811.03;5118452;28;20217;-67
2021/05/24 07:17:18;;;;;;;9.03;2.77;;;;;;;25.81;29.86;100805.31;5118290;28;20258;-80
2021/05/24 07:19:44;;;;;;;11.73;4.10;;;;;;;25.95;29.05;100801.94;5118902;28;20484;-70
2021/05/24 07:22:09;;;;;;;9.50;3.20;;;;;;;26.37;27.54;100802.34;5119365;28;20175;-65
2021/05/24 07:24:34;;;;;;;7.70;3.60;;;;;;;27.55;25.56;100797.34;5117902;28;20220;-65
2021/05/24 07:27:00;;;;;;;7.43;3.53;;;;;;;27.86;25.77;100792.78;5118679;28;20436;-65
2021/05/24 07:29:26;;;;;;;3.80;2.47;;;;;;;27.18;25.75;100809.34;5118014;28;20168;-65
2021/05/24 07:31:51;;;;;;;8.27;2.60;;;;;;;25.68;26.54;100802.47;5117952;28;20466;-65
2021/05/24 07:34:16;;;;;;;2.67;2.40;;;;;;;24.38;28.37;100811.50;5118578;28;20164;-65
2021/05/24 07:36:42;;;;;;;2.90;2.47;;;;;;;24.12;29.32;100811.84;5117997;28;20184;-64
2021/05/24 07:39:07;;;;;;;3.00;2.30;;;;;;;24.92;28.27;100807.22;5117990;28;20159;-64
2021/05/24 07:41:32;;;;;;;2.40;2.20;;;;;;;22.96;31.37;100806.13;5120955;28;20225;-61
2021/05/24 07:43:58;;;;;;;2.73;2.40;;;;;;;23.49;30.27;100812.81;5121965;28;20207;-61
2021/05/24 07:46:23;;;;;;;2.47;2.10;;;;;;;25.15;28.21;100801.56;5121614;28;20172;-60
2021/05/24 07:48:48;;;;;;;2.90;2.30;;;;;;;23.31;31.13;100801.16;5122135;28;20228;-61
2021/05/24 07:51:13;;;;;;;2.70;2.50;;;;;;;21.76;33.44;100806.25;5121831;27;20171;-61
2021/05/24 07:53:39;;;;;;;2.57;2.37;;;;;;;20.48;35.78;100814.81;5121731;28;20241;-61
2021/05/24 07:56:04;;;;;;;2.90;2.50;;;;;;;22.00;33.41;100796.53;5122253;28;20164;-61
2021/05/24 07:58:30;;;;;;;2.97;2.77;;;;;;;22.40;32.63;100797.72;5121482;28;20175;-60
2021/05/24 08:00:56;;;;;;;3.50;2.20;;;;;;;21.65;33.63;100788.97;5121294;28;20179;-61
2021/05/24 08:03:21;;;;;;;5.00;2.70;;;;;;;22.14;32.51;100778.31;5121703;28;20171;-61
2021/05/24 08:05:46;;;;;;;2.60;2.40;;;;;;;24.03;29.81;100783.81;5121368;28;20172;-61
2021/05/24 08:08:11;;;;;;;3.13;2.20;;;;;;;23.03;31.00;100770.41;5121278;28;20211;-61
2021/05/24 08:10:37;;;;;;;2.90;2.50;;;;;;;22.33;32.43;100777.63;5122053;28;20488;-64
2021/05/24 08:13:02;;;;;;;3.13;2.83;;;;;;;24.38;29.49;100768.88;5121119;28;20175;-64
2021/05/24 08:15:31;;;;;;;4.90;2.57;;;;;;;23.66;30.28;100774.81;5121356;28;20210;-64
2021/05/24 08:18:02;;;;;;;3.10;2.30;;;;;;;25.77;26.94;100770.88;5121920;28;20174;-64
2021/05/24 08:20:28;;;;;;;3.47;2.20;;;;;;;24.06;29.49;100767.72;5121101;28;20467;-63
2021/05/24 08:22:53;;;;;;;2.93;2.40;;;;;;;24.57;29.29;100764.44;5120425;28;20413;-64
2021/05/24 08:25:18;;;;;;;4.13;2.50;;;;;;;23.16;31.64;100768.97;5121063;28;20467;-63
2021/05/24 08:27:44;;;;;;;3.07;2.30;;;;;;;25.17;28.22;100759.69;5121066;28;20235;-65
2021/05/24 08:30:10;;;;;;;3.40;2.40;;;;;;;24.60;28.76;100772.28;5121216;28;20164;-64
2021/05/24 08:32:35;;;;;;;2.60;2.37;;;;;;;24.46;28.68;100763.16;5120802;28;20205;-66
2021/05/24 08:35:02;;;;;;;2.67;2.20;;;;;;;25.05;28.25;100757.66;5121138;28;20684;-65
2021/05/24 08:37:27;;;;;;;3.20;2.23;;;;;;;25.96;26.77;100746.69;5121155;28;20440;-65
2021/05/24 08:39:53;;;;;;;2.77;2.57;;;;;;;25.95;27.03;100748.50;5120781;28;20415;-65
2021/05/24 08:42:18;;;;;;;2.90;2.50;;;;;;;24.51;28.96;100749.63;5120414;28;20183;-63
2021/05/24 08:44:44;;;;;;;3.00;2.30;;;;;;;25.01;28.36;100734.75;5120715;28;20171;-64
2021/05/24 08:47:11;;;;;;;2.23;2.03;;;;;;;26.01;26.83;100728.63;5120579;28;20203;-66
2021/05/24 08:49:36;;;;;;;3.87;2.90;;;;;;;24.48;28.18;100742.63;5120573;27;20194;-66
2021/05/24 08:52:01;;;;;;;2.53;2.33;;;;;;;25.18;27.31;100744.53;5120073;28;20406;-65
2021/05/24 08:54:27;;;;;;;2.87;2.20;;;;;;;26.75;24.97;100724.47;5120486;28;20175;-64
2021/05/24 08:56:52;;;;;;;2.20;2.00;;;;;;;26.30;26.33;100732.34;5120407;28;20228;-67
2021/05/24 08:59:17;;;;;;;2.63;2.13;;;;;;;24.58;28.43;100742.19;5120965;28;20175;-67
2021/05/24 09:01:43;;;;;;;2.37;2.10;;;;;;;26.58;25.81;100724.56;5119967;27;20163;-67
2021/05/24 09:04:08;;;;;;;2.20;2.00;;;;;;;26.85;24.78;100719.44;5120206;28;20167;-67
2021/05/24 09:06:44;;;;;;;3.00;2.03;;;;;;;27.54;23.98;100719.78;5120361;28;20163;-67
2021/05/24 09:09:13;;;;;;;3.07;2.47;;;;;;;26.77;24.71;100716.38;5119410;28;20254;-69
2021/05/24 09:11:39;;;;;;;3.10;2.40;;;;;;;25.25;27.05;100731.72;5119912;28;20417;-67
2021/05/24 09:14:16;;;;;;;3.17;2.87;;;;;;;26.48;25.61;100733.13;5120237;28;20421;-67
2021/05/24 09:16:41;;;;;;;2.80;2.17;;;;;;;26.36;26.00;100720.47;5120112;28;20424;-68
2021/05/24 09:19:18;;;;;;;3.47;2.10;;;;;;;27.31;23.67;100707.78;5119894;28;20405;-68
2021/05/24 09:22:03;;;;;;;2.53;2.20;;;;;;;26.73;24.60;100702.28;5119692;28;20193;-68
2021/05/24 09:24:28;;;;;;;2.90;2.30;;;;;;;27.50;24.36;100703.03;5119826;28;20453;-67
2021/05/24 09:26:57;;;;;;;2.40;2.20;;;;;;;26.23;25.16;100694.41;5119614;28;20452;-67
2021/05/24 09:29:23;;;;;;;3.27;2.10;;;;;;;26.13;26.03;100681.66;5119839;28;20229;-67
2021/05/24 09:32:12;;;;;;;2.30;2.10;;;;;;;24.13;28.31;100691.91;5119748;28;20413;-69
2021/05/24 09:34:39;;;;;;;2.60;2.40;;;;;;;25.83;26.18;100677.94;5116499;28;20497;-68
2021/05/24 09:37:04;;;;;;;2.10;1.90;;;;;;;27.15;24.64;100681.09;5119569;28;20501;-68
2021/05/24 09:39:31;;;;;;;3.00;2.23;;;;;;;26.22;25.83;100682.00;5119731;28;20441;-69
2021/05/24 09:42:00;;;;;;;2.90;2.10;;;;;;;26.06;25.09;100681.16;5119512;28;20174;-67
2021/05/24 09:44:27;;;;;;;2.23;2.03;;;;;;;25.25;27.04;100705.94;5120013;28;20421;-68
2021/05/24 09:46:53;;;;;;;3.47;2.03;;;;;;;24.70;26.67;100675.81;5119336;28;20445;-68
2021/05/24 09:49:23;;;;;;;3.40;2.63;;;;;;;24.91;26.45;100674.81;5119419;28;20823;-68
2021/05/24 09:51:51;;;;;;;3.67;2.10;;;;;;;25.07;25.91;100670.38;5119826;28;20405;-67
2021/05/24 09:54:16;;;;;;;2.43;2.20;;;;;;;24.11;28.12;100680.50;5119117;28;20421;-69
2021/05/24 09:56:45;;;;;;;2.73;2.13;;;;;;;23.98;27.60;100671.34;5119058;28;20402;-68
2021/05/24 09:59:13;;;;;;;3.90;2.27;;;;;;;24.26;27.15;100678.88;5119582;28;20513;-68
2021/05/24 10:01:42;;;;;;;2.97;2.20;;;;;;;23.47;29.28;100671.84;5118939;28;20494;-69
2021/05/24 10:04:10;;;;;;;2.63;2.23;;;;;;;21.81;32.12;100669.84;5118345;28;20417;-68
2021/05/24 10:06:37;;;;;;;2.43;2.20;;;;;;;22.18;30.48;100667.56;5118897;28;20635;-67
2021/05/24 10:09:04;;;;;;;3.33;2.23;;;;;;;22.71;30.84;100659.16;5119124;28;20881;-67
2021/05/24 10:11:30;;;;;;;2.50;2.27;;;;;;;21.70;31.58;100685.31;5119370;28;20422;-68
2021/05/24 10:13:56;;;;;;;3.20;2.10;;;;;;;21.54;31.90;100661.13;5118954;28;20460;-67
2021/05/24 10:16:24;;;;;;;2.60;2.13;;;;;;;20.53;34.42;100663.72;5118768;28;20628;-67
2021/05/24 10:18:49;;;;;;;2.20;2.00;;;;;;;21.42;32.69;100653.59;5118813;28;20408;-67
2021/05/24 10:21:15;;;;;;;3.50;2.40;;;;;;;22.02;31.01;100654.00;5118920;27;20418;-66
2021/05/24 10:23:40;;;;;;;3.10;2.37;;;;;;;22.75;29.82;100643.13;5118759;28;20207;-67
2021/05/24 10:26:08;;;;;;;3.27;2.23;;;;;;;23.18;29.54;100649.25;5118872;28;20298;-67
2021/05/24 10:28:34;;;;;;;2.40;1.80;;;;;;;24.16;28.09;100630.50;5118724;28;20206;-66
2021/05/24 10:31:00;;;;;;;3.07;2.10;;;;;;;23.74;28.95;100628.09;5118214;28;20685;-67
2021/05/24 10:33:43;;;;;;;4.03;2.33;;;;;;;23.02;29.42;100625.94;5118302;28;20164;-66
2021/05/24 10:36:18;;;;;;;2.60;2.30;;;;;;;22.98;29.95;100627.03;5118657;28;20417;-66
2021/05/24 10:38:43;;;;;;;3.10;2.20;;;;;;;22.79;30.43;100626.97;5118771;28;20465;-66
2021/05/24 10:41:14;;;;;;;2.97;2.53;;;;;;;22.94;30.04;100629.91;5118509;28;20488;-67
2021/05/24 10:43:45;;;;;;;3.37;2.50;;;;;;;23.02;29.76;100622.44;5118632;28;20318;-68
2021/05/24 10:46:40;;;;;;;5.57;2.37;;;;;;;22.61;29.96;100622.44;5118636;28;20462;-68
2021/05/24 10:49:18;;;;;;;2.53;2.33;;;;;;;22.15;31.26;100639.31;5109493;28;20491;-67
2021/05/24 10:51:47;;;;;;;5.23;2.70;;;;;;;22.82;29.89;100639.25;5117921;28;20810;-66
2021/05/24 10:54:21;;;;;;;2.80;2.07;;;;;;;23.26;29.23;100624.94;5118659;28;20807;-65
2021/05/24 10:56:59;;;;;;;4.17;2.10;;;;;;;22.89;28.93;100611.47;5118524;28;20520;-68
2021/05/24 10:59:43;;;;;;;2.40;2.20;;;;;;;22.27;30.41;100611.41;5118508;28;20720;-68
2021/05/24 11:02:12;;;;;;;3.37;2.40;;;;;;;23.40;28.04;100595.94;5118332;28;20425;-69
2021/05/24 11:04:56;;;;;;;3.27;2.20;;;;;;;22.52;29.45;100590.00;5118467;28;20414;-68
2021/05/24 11:07:27;;;;;;;5.20;2.33;;;;;;;22.65;28.77;100589.47;5118603;28;20495;-67
2021/05/24 11:09:54;;;;;;;2.23;2.03;;;;;;;23.33;26.19;100591.84;5118474;28;20486;-66
2021/05/24 11:12:31;;;;;;;2.17;1.87;;;;;;;21.89;27.02;100587.25;5117500;28;20457;-66
2021/05/24 11:15:23;;;;;;;3.20;2.10;;;;;;;21.30;28.52;100578.91;5118398;28;20413;-67
2021/05/24 11:17:58;;;;;;;2.00;1.80;;;;;;;21.96;25.98;100579.91;5119175;28;20489;-67
2021/05/24 11:20:33;;;;;;;2.47;2.27;;;;;;;23.18;24.97;100569.47;5122546;28;20492;-67
2021/05/24 11:23:37;;;;;;;1.87;1.60;;;;;;;22.78;25.42;100557.94;5122520;28;20449;-68